sensor_id;sensor_type;location;lat;lon;timestamp;pressure;altitude;pressure_sealevel;temperature;humidity
6038;BME280;3047;42.600;23.470;2022-08-19T00:01:36;92877.97;;;23.00;65.52
6038;BME280;3047;42.600;23.470;2022-08-19T00:04:06;92863.13;;;22.92;65.85
6038;BME280;3047;42.600;23.470;2022-08-19T00:06:33;92890.81;;;23.11;65.76
6038;BME280;3047;42.600;23.470;2022-08-19T00:09:01;92842.97;;;22.86;66.43
6038;BME280;3047;42.600;23.470;2022-08-19T00:11:31;92898.25;;;23.26;66.79
6038;BME280;3047;42.600;23.470;2022-08-19T00:14:01;92853.47;;;23.06;65.94
6038;BME280;3047;42.600;23.470;2022-08-19T00:16:28;92879.06;;;23.18;66.11
6038;BME280;3047;42.600;23.470;2022-08-19T00:18:55;92884.47;;;23.15;68.59
6038;BME280;3047;42.600;23.470;2022-08-19T00:21:23;92899.59;;;23.09;68.78
6038;BME280;3047;42.600;23.470;2022-08-19T00:23:50;92898.16;;;23.16;66.96
6038;BME280;3047;42.600;23.470;2022-08-19T00:26:16;92904.28;;;23.15;66.52
6038;BME280;3047;42.600;23.470;2022-08-19T00:28:43;92903.75;;;23.21;69.07
6038;BME280;3047;42.600;23.470;2022-08-19T00:31:12;92911.06;;;23.16;69.36
6038;BME280;3047;42.600;23.470;2022-08-19T00:33:38;92915.03;;;23.09;68.71
6038;BME280;3047;42.600;23.470;2022-08-19T00:36:08;92905.59;;;23.09;68.09
6038;BME280;3047;42.600;23.470;2022-08-19T00:38:36;92917.53;;;23.10;69.25
6038;BME280;3047;42.600;23.470;2022-08-19T00:41:08;92894.44;;;23.09;71.43
6038;BME280;3047;42.600;23.470;2022-08-19T00:43:35;92875.75;;;22.84;70.83
6038;BME280;3047;42.600;23.470;2022-08-19T00:46:04;92912.53;;;22.98;69.53
6038;BME280;3047;42.600;23.470;2022-08-19T00:48:33;92867.72;;;22.78;68.19
6038;BME280;3047;42.600;23.470;2022-08-19T00:51:01;92902.31;;;22.96;68.08
6038;BME280;3047;42.600;23.470;2022-08-19T00:53:31;92906.09;;;22.92;67.40
6038;BME280;3047;42.600;23.470;2022-08-19T00:56:00;92901.63;;;23.05;66.72
6038;BME280;3047;42.600;23.470;2022-08-19T00:58:31;92898.31;;;23.14;67.06
6038;BME280;3047;42.600;23.470;2022-08-19T01:00:59;92907.91;;;23.12;67.33
6038;BME280;3047;42.600;23.470;2022-08-19T01:03:27;92906.03;;;23.14;67.24
6038;BME280;3047;42.600;23.470;2022-08-19T01:05:55;92904.06;;;23.07;67.69
6038;BME280;3047;42.600;23.470;2022-08-19T01:08:23;92900.09;;;23.03;67.50
6038;BME280;3047;42.600;23.470;2022-08-19T01:10:52;92862.78;;;22.86;66.52
6038;BME280;3047;42.600;23.470;2022-08-19T01:13:23;92899.50;;;23.10;66.94
6038;BME280;3047;42.600;23.470;2022-08-19T01:15:54;92897.97;;;23.08;66.84
6038;BME280;3047;42.600;23.470;2022-08-19T01:18:23;92900.53;;;23.08;66.71
6038;BME280;3047;42.600;23.470;2022-08-19T01:20:52;92890.66;;;23.13;66.68
6038;BME280;3047;42.600;23.470;2022-08-19T01:23:22;92884.84;;;23.11;66.74
6038;BME280;3047;42.600;23.470;2022-08-19T01:26:09;92883.31;;;23.08;67.35
6038;BME280;3047;42.600;23.470;2022-08-19T01:28:37;92887.22;;;23.03;66.96
6038;BME280;3047;42.600;23.470;2022-08-19T01:31:04;92863.94;;;22.82;69.37
6038;BME280;3047;42.600;23.470;2022-08-19T01:33:31;92768.63;;;22.17;70.38
6038;BME280;3047;42.600;23.470;2022-08-19T01:36:04;92891.00;;;22.76;70.58
6038;BME280;3047;42.600;23.470;2022-08-19T01:38:37;92871.13;;;22.56;70.97
6038;BME280;3047;42.600;23.470;2022-08-19T01:41:04;92883.53;;;22.73;71.85
6038;BME280;3047;42.600;23.470;2022-08-19T01:43:32;92896.13;;;22.76;73.14
6038;BME280;3047;42.600;23.470;2022-08-19T01:45:59;92896.06;;;22.66;72.90
6038;BME280;3047;42.600;23.470;2022-08-19T01:48:26;92890.59;;;22.37;73.64
6038;BME280;3047;42.600;23.470;2022-08-19T01:50:54;92857.28;;;22.25;71.38
6038;BME280;3047;42.600;23.470;2022-08-19T01:53:21;92886.13;;;22.39;70.19
6038;BME280;3047;42.600;23.470;2022-08-19T01:55:49;92892.09;;;22.51;69.15
6038;BME280;3047;42.600;23.470;2022-08-19T01:58:19;92876.78;;;22.50;68.70
6038;BME280;3047;42.600;23.470;2022-08-19T02:00:47;92862.75;;;22.42;68.55
6038;BME280;3047;42.600;23.470;2022-08-19T02:03:14;92877.09;;;22.56;68.37
6038;BME280;3047;42.600;23.470;2022-08-19T02:05:42;92878.97;;;22.65;68.49
6038;BME280;3047;42.600;23.470;2022-08-19T02:08:10;92889.97;;;22.67;69.11
6038;BME280;3047;42.600;23.470;2022-08-19T02:10:40;92890.19;;;22.76;67.70
6038;BME280;3047;42.600;23.470;2022-08-19T02:13:09;92883.53;;;22.73;67.67
6038;BME280;3047;42.600;23.470;2022-08-19T02:15:36;92850.53;;;22.56;67.53
6038;BME280;3047;42.600;23.470;2022-08-19T02:18:03;92867.38;;;22.71;67.81
6038;BME280;3047;42.600;23.470;2022-08-19T02:20:30;92885.16;;;22.74;69.94
6038;BME280;3047;42.600;23.470;2022-08-19T02:22:57;92881.50;;;22.77;70.23
6038;BME280;3047;42.600;23.470;2022-08-19T02:25:24;92895.47;;;22.74;70.04
6038;BME280;3047;42.600;23.470;2022-08-19T02:27:50;92894.66;;;22.74;71.19
6038;BME280;3047;42.600;23.470;2022-08-19T02:30:19;92894.06;;;22.70;72.97
6038;BME280;3047;42.600;23.470;2022-08-19T02:32:46;92856.56;;;22.34;73.64
6038;BME280;3047;42.600;23.470;2022-08-19T02:35:14;92858.31;;;22.33;72.96
6038;BME280;3047;42.600;23.470;2022-08-19T02:37:41;92897.47;;;22.48;73.88
6038;BME280;3047;42.600;23.470;2022-08-19T02:40:26;92898.78;;;22.42;74.36
6038;BME280;3047;42.600;23.470;2022-08-19T02:42:52;92897.97;;;22.31;74.17
6038;BME280;3047;42.600;23.470;2022-08-19T02:45:21;92910.38;;;22.14;74.50
6038;BME280;3047;42.600;23.470;2022-08-19T02:47:48;92876.66;;;21.95;74.73
6038;BME280;3047;42.600;23.470;2022-08-19T02:50:14;92907.41;;;22.08;75.61
6038;BME280;3047;42.600;23.470;2022-08-19T02:52:41;92906.56;;;21.85;76.23
6038;BME280;3047;42.600;23.470;2022-08-19T02:55:08;92886.78;;;21.52;76.11
6038;BME280;3047;42.600;23.470;2022-08-19T02:57:35;92903.16;;;21.73;76.64
6038;BME280;3047;42.600;23.470;2022-08-19T03:00:04;92858.72;;;21.48;76.85
6038;BME280;3047;42.600;23.470;2022-08-19T03:02:33;92899.81;;;21.84;76.79
6038;BME280;3047;42.600;23.470;2022-08-19T03:04:59;92894.38;;;21.64;77.31
6038;BME280;3047;42.600;23.470;2022-08-19T03:07:27;92904.19;;;21.70;77.30
6038;BME280;3047;42.600;23.470;2022-08-19T03:09:53;92907.91;;;21.55;76.46
6038;BME280;3047;42.600;23.470;2022-08-19T03:12:20;92906.00;;;21.46;76.63
6038;BME280;3047;42.600;23.470;2022-08-19T03:14:47;92905.66;;;21.39;77.18
6038;BME280;3047;42.600;23.470;2022-08-19T03:17:13;92905.75;;;21.38;77.22
6038;BME280;3047;42.600;23.470;2022-08-19T03:19:41;92901.84;;;21.56;77.82
6038;BME280;3047;42.600;23.470;2022-08-19T03:22:09;92894.47;;;21.52;77.57
6038;BME280;3047;42.600;23.470;2022-08-19T03:24:35;92883.16;;;21.30;77.61
6038;BME280;3047;42.600;23.470;2022-08-19T03:27:03;92849.53;;;20.98;78.21
6038;BME280;3047;42.600;23.470;2022-08-19T03:29:31;92896.47;;;21.24;78.75
6038;BME280;3047;42.600;23.470;2022-08-19T03:31:59;92894.66;;;21.13;78.38
6038;BME280;3047;42.600;23.470;2022-08-19T03:34:30;92892.75;;;21.04;78.96
6038;BME280;3047;42.600;23.470;2022-08-19T03:37:02;92898.13;;;21.01;78.79
6038;BME280;3047;42.600;23.470;2022-08-19T03:39:29;92905.59;;;21.04;78.80
6038;BME280;3047;42.600;23.470;2022-08-19T03:41:56;92885.28;;;21.01;78.08
6038;BME280;3047;42.600;23.470;2022-08-19T03:44:26;92904.94;;;21.13;78.46
6038;BME280;3047;42.600;23.470;2022-08-19T03:46:55;92868.72;;;21.05;79.41
6038;BME280;3047;42.600;23.470;2022-08-19T03:49:23;92855.78;;;21.07;77.74
6038;BME280;3047;42.600;23.470;2022-08-19T03:51:51;92885.09;;;21.15;77.70
6038;BME280;3047;42.600;23.470;2022-08-19T03:54:20;92910.50;;;21.31;79.00
6038;BME280;3047;42.600;23.470;2022-08-19T03:56:49;92912.91;;;21.21;79.80
6038;BME280;3047;42.600;23.470;2022-08-19T03:59:18;92919.91;;;21.19;80.29
6038;BME280;3047;42.600;23.470;2022-08-19T04:01:45;92921.22;;;21.25;80.46
6038;BME280;3047;42.600;23.470;2022-08-19T04:04:12;92830.75;;;20.73;81.22
6038;BME280;3047;42.600;23.470;2022-08-19T04:06:39;92931.94;;;21.43;80.99
6038;BME280;3047;42.600;23.470;2022-08-19T04:09:10;92933.44;;;21.21;82.25
6038;BME280;3047;42.600;23.470;2022-08-19T04:11:41;92933.53;;;21.09;82.17
6038;BME280;3047;42.600;23.470;2022-08-19T04:14:08;92795.41;;;20.29;80.72
6038;BME280;3047;42.600;23.470;2022-08-19T04:16:35;92935.06;;;21.35;82.69
6038;BME280;3047;42.600;23.470;2022-08-19T04:19:04;92933.47;;;21.45;83.17
6038;BME280;3047;42.600;23.470;2022-08-19T04:21:32;92938.38;;;21.48;84.21
6038;BME280;3047;42.600;23.470;2022-08-19T04:23:59;92946.19;;;21.47;84.10
6038;BME280;3047;42.600;23.470;2022-08-19T04:26:28;92943.97;;;21.42;84.36
6038;BME280;3047;42.600;23.470;2022-08-19T04:28:59;92943.75;;;21.45;85.08
6038;BME280;3047;42.600;23.470;2022-08-19T04:31:28;92944.56;;;21.46;85.23
6038;BME280;3047;42.600;23.470;2022-08-19T04:33:56;92947.47;;;21.41;85.95
6038;BME280;3047;42.600;23.470;2022-08-19T04:36:26;92957.06;;;21.39;85.26
6038;BME280;3047;42.600;23.470;2022-08-19T04:38:54;92892.63;;;21.06;84.21
6038;BME280;3047;42.600;23.470;2022-08-19T04:41:21;92949.97;;;21.54;83.16
6038;BME280;3047;42.600;23.470;2022-08-19T04:44:09;92944.19;;;21.75;85.88
6038;BME280;3047;42.600;23.470;2022-08-19T04:46:36;92936.28;;;21.89;85.07
6038;BME280;3047;42.600;23.470;2022-08-19T04:49:05;92892.84;;;21.62;85.43
6038;BME280;3047;42.600;23.470;2022-08-19T04:51:32;92931.38;;;21.97;86.19
6038;BME280;3047;42.600;23.470;2022-08-19T04:54:01;92932.56;;;22.04;86.80
6038;BME280;3047;42.600;23.470;2022-08-19T04:56:29;92932.31;;;22.07;87.73
6038;BME280;3047;42.600;23.470;2022-08-19T04:58:56;92928.09;;;22.06;88.61
6038;BME280;3047;42.600;23.470;2022-08-19T05:01:26;92909.50;;;22.03;87.95
6038;BME280;3047;42.600;23.470;2022-08-19T05:03:55;92941.25;;;22.26;88.08
6038;BME280;3047;42.600;23.470;2022-08-19T05:06:22;92946.63;;;22.34;88.57
6038;BME280;3047;42.600;23.470;2022-08-19T05:08:51;92945.81;;;22.44;86.21
6038;BME280;3047;42.600;23.470;2022-08-19T05:11:21;92942.41;;;22.55;86.63
6038;BME280;3047;42.600;23.470;2022-08-19T05:13:48;92946.84;;;22.64;86.01
6038;BME280;3047;42.600;23.470;2022-08-19T05:16:17;92947.78;;;22.75;85.13
6038;BME280;3047;42.600;23.470;2022-08-19T05:18:46;92928.56;;;22.79;85.48
6038;BME280;3047;42.600;23.470;2022-08-19T05:21:31;92944.94;;;23.00;86.39
6038;BME280;3047;42.600;23.470;2022-08-19T05:24:16;92943.28;;;23.10;84.80
6038;BME280;3047;42.600;23.470;2022-08-19T05:26:45;92940.56;;;23.23;84.80
6038;BME280;3047;42.600;23.470;2022-08-19T05:29:14;92948.13;;;23.36;83.49
6038;BME280;3047;42.600;23.470;2022-08-19T05:31:42;92947.56;;;23.53;80.11
6038;BME280;3047;42.600;23.470;2022-08-19T05:34:10;92924.50;;;23.52;76.01
6038;BME280;3047;42.600;23.470;2022-08-19T05:36:43;92942.16;;;23.67;77.05
6038;BME280;3047;42.600;23.470;2022-08-19T05:39:12;92958.59;;;23.87;78.95
6038;BME280;3047;42.600;23.470;2022-08-19T05:41:41;92949.00;;;23.99;79.70
6038;BME280;3047;42.600;23.470;2022-08-19T05:44:08;92944.72;;;24.09;77.04
6038;BME280;3047;42.600;23.470;2022-08-19T05:46:35;92949.25;;;24.17;77.04
6038;BME280;3047;42.600;23.470;2022-08-19T05:49:02;92934.72;;;24.16;75.84
6038;BME280;3047;42.600;23.470;2022-08-19T05:51:32;92959.91;;;24.33;75.95
6038;BME280;3047;42.600;23.470;2022-08-19T05:53:59;92931.88;;;24.19;75.30
6038;BME280;3047;42.600;23.470;2022-08-19T05:56:26;92960.69;;;24.45;76.16
6038;BME280;3047;42.600;23.470;2022-08-19T05:58:53;92957.22;;;24.56;75.23
6038;BME280;3047;42.600;23.470;2022-08-19T06:01:20;92950.94;;;24.58;74.11
6038;BME280;3047;42.600;23.470;2022-08-19T06:03:47;92958.59;;;24.70;71.53
6038;BME280;3047;42.600;23.470;2022-08-19T06:06:15;92960.53;;;24.77;71.40
6038;BME280;3047;42.600;23.470;2022-08-19T06:08:44;92962.72;;;24.82;71.89
6038;BME280;3047;42.600;23.470;2022-08-19T06:11:19;92967.88;;;24.82;71.65
6038;BME280;3047;42.600;23.470;2022-08-19T06:13:48;92964.09;;;24.86;71.80
6038;BME280;3047;42.600;23.470;2022-08-19T06:16:16;92971.03;;;24.85;71.66
6038;BME280;3047;42.600;23.470;2022-08-19T06:18:46;92970.22;;;24.85;72.80
6038;BME280;3047;42.600;23.470;2022-08-19T06:21:13;92950.19;;;24.67;73.58
6038;BME280;3047;42.600;23.470;2022-08-19T06:23:40;92975.25;;;24.86;71.92
6038;BME280;3047;42.600;23.470;2022-08-19T06:26:11;92974.59;;;24.94;71.75
6038;BME280;3047;42.600;23.470;2022-08-19T06:28:38;92975.28;;;24.96;73.17
6038;BME280;3047;42.600;23.470;2022-08-19T06:31:13;92953.66;;;24.87;72.77
6038;BME280;3047;42.600;23.470;2022-08-19T06:33:41;92946.25;;;24.83;74.68
6038;BME280;3047;42.600;23.470;2022-08-19T06:36:16;92950.38;;;24.95;74.37
6038;BME280;3047;42.600;23.470;2022-08-19T06:38:43;92974.19;;;24.99;75.30
6038;BME280;3047;42.600;23.470;2022-08-19T06:41:11;92968.63;;;25.03;76.06
6038;BME280;3047;42.600;23.470;2022-08-19T06:43:38;92971.75;;;25.07;77.02
6038;BME280;3047;42.600;23.470;2022-08-19T06:46:10;92954.47;;;24.98;76.68
6038;BME280;3047;42.600;23.470;2022-08-19T06:48:37;92966.59;;;25.07;76.59
6038;BME280;3047;42.600;23.470;2022-08-19T06:51:04;92964.19;;;25.15;75.08
6038;BME280;3047;42.600;23.470;2022-08-19T06:53:31;92952.03;;;25.06;75.11
6038;BME280;3047;42.600;23.470;2022-08-19T06:55:59;92955.88;;;25.11;74.73
6038;BME280;3047;42.600;23.470;2022-08-19T06:58:29;92969.91;;;25.19;76.62
6038;BME280;3047;42.600;23.470;2022-08-19T07:00:59;92973.88;;;25.23;77.07
6038;BME280;3047;42.600;23.470;2022-08-19T07:03:29;92975.63;;;25.32;74.09
6038;BME280;3047;42.600;23.470;2022-08-19T07:05:57;92968.31;;;25.37;72.82
6038;BME280;3047;42.600;23.470;2022-08-19T07:08:24;92976.34;;;25.44;71.74
6038;BME280;3047;42.600;23.470;2022-08-19T07:10:52;92989.69;;;25.49;71.13
6038;BME280;3047;42.600;23.470;2022-08-19T07:13:20;92974.03;;;25.40;71.90
6038;BME280;3047;42.600;23.470;2022-08-19T07:15:49;92983.56;;;25.50;72.75
6038;BME280;3047;42.600;23.470;2022-08-19T07:18:17;92983.97;;;25.55;73.01
6038;BME280;3047;42.600;23.470;2022-08-19T07:20:44;92986.59;;;25.64;72.15
6038;BME280;3047;42.600;23.470;2022-08-19T07:23:11;92987.16;;;25.78;71.52
6038;BME280;3047;42.600;23.470;2022-08-19T07:25:38;92942.59;;;25.55;72.16
6038;BME280;3047;42.600;23.470;2022-08-19T07:28:05;92991.50;;;25.87;70.77
6038;BME280;3047;42.600;23.470;2022-08-19T07:30:36;92977.75;;;25.86;70.55
6038;BME280;3047;42.600;23.470;2022-08-19T07:33:04;92993.50;;;26.12;69.30
6038;BME280;3047;42.600;23.470;2022-08-19T07:35:31;92992.00;;;26.20;69.00
6038;BME280;3047;42.600;23.470;2022-08-19T07:37:59;92985.59;;;26.33;69.54
6038;BME280;3047;42.600;23.470;2022-08-19T07:40:27;92980.13;;;26.46;67.71
6038;BME280;3047;42.600;23.470;2022-08-19T07:42:54;92990.72;;;26.53;67.80
6038;BME280;3047;42.600;23.470;2022-08-19T07:45:21;92976.53;;;26.57;69.29
6038;BME280;3047;42.600;23.470;2022-08-19T07:47:48;92991.03;;;26.77;66.81
6038;BME280;3047;42.600;23.470;2022-08-19T07:50:18;92977.91;;;26.88;68.13
6038;BME280;3047;42.600;23.470;2022-08-19T07:52:45;92975.38;;;27.06;67.29
6038;BME280;3047;42.600;23.470;2022-08-19T07:55:12;92964.38;;;27.22;67.21
6038;BME280;3047;42.600;23.470;2022-08-19T07:57:39;92982.13;;;27.45;66.50
6038;BME280;3047;42.600;23.470;2022-08-19T08:00:07;92984.78;;;27.71;64.06
6038;BME280;3047;42.600;23.470;2022-08-19T08:02:34;92978.56;;;27.99;61.62
6038;BME280;3047;42.600;23.470;2022-08-19T08:05:00;92987.44;;;28.15;61.86
6038;BME280;3047;42.600;23.470;2022-08-19T08:07:45;92983.31;;;28.48;61.29
6038;BME280;3047;42.600;23.470;2022-08-19T08:10:30;92979.63;;;28.85;61.06
6038;BME280;3047;42.600;23.470;2022-08-19T08:12:57;92989.72;;;29.22;56.81
6038;BME280;3047;42.600;23.470;2022-08-19T08:15:24;92981.19;;;29.54;57.46
6038;BME280;3047;42.600;23.470;2022-08-19T08:17:51;92981.09;;;29.88;55.31
6038;BME280;3047;42.600;23.470;2022-08-19T08:20:19;92987.44;;;30.10;53.51
6038;BME280;3047;42.600;23.470;2022-08-19T08:22:47;92991.19;;;30.32;53.71
6038;BME280;3047;42.600;23.470;2022-08-19T08:25:32;92986.59;;;30.59;52.41
6038;BME280;3047;42.600;23.470;2022-08-19T08:28:00;92957.25;;;30.65;49.27
6038;BME280;3047;42.600;23.470;2022-08-19T08:30:29;92979.13;;;31.11;49.10
6038;BME280;3047;42.600;23.470;2022-08-19T08:32:58;92980.69;;;31.37;46.94
6038;BME280;3047;42.600;23.470;2022-08-19T08:35:24;92974.56;;;31.52;47.33
6038;BME280;3047;42.600;23.470;2022-08-19T08:37:54;92974.59;;;31.67;46.10
6038;BME280;3047;42.600;23.470;2022-08-19T08:40:29;92970.75;;;31.86;43.40
6038;BME280;3047;42.600;23.470;2022-08-19T08:43:01;92978.13;;;32.06;43.05
6038;BME280;3047;42.600;23.470;2022-08-19T08:45:30;92961.81;;;32.04;42.13
6038;BME280;3047;42.600;23.470;2022-08-19T08:48:02;92976.00;;;32.24;41.68
6038;BME280;3047;42.600;23.470;2022-08-19T08:50:34;92966.59;;;32.38;42.16
6038;BME280;3047;42.600;23.470;2022-08-19T08:53:06;92960.94;;;32.64;40.72
6038;BME280;3047;42.600;23.470;2022-08-19T08:55:33;92968.25;;;32.68;39.40
6038;BME280;3047;42.600;23.470;2022-08-19T08:58:03;92941.38;;;32.60;42.03
6038;BME280;3047;42.600;23.470;2022-08-19T09:00:33;92962.78;;;32.78;40.85
6038;BME280;3047;42.600;23.470;2022-08-19T09:03:00;92959.34;;;32.92;38.96
6038;BME280;3047;42.600;23.470;2022-08-19T09:05:35;92963.88;;;32.98;38.38
6038;BME280;3047;42.600;23.470;2022-08-19T09:08:11;92953.41;;;32.98;37.61
6038;BME280;3047;42.600;23.470;2022-08-19T09:10:44;92949.84;;;33.21;39.45
6038;BME280;3047;42.600;23.470;2022-08-19T09:13:20;92951.75;;;33.27;38.49
6038;BME280;3047;42.600;23.470;2022-08-19T09:15:53;92955.06;;;33.36;35.84
6038;BME280;3047;42.600;23.470;2022-08-19T09:18:21;92947.81;;;33.53;36.08
6038;BME280;3047;42.600;23.470;2022-08-19T09:20:48;92946.91;;;33.60;35.96
6038;BME280;3047;42.600;23.470;2022-08-19T09:23:16;92950.66;;;33.72;36.09
6038;BME280;3047;42.600;23.470;2022-08-19T09:25:43;92947.97;;;33.87;35.76
6038;BME280;3047;42.600;23.470;2022-08-19T09:28:09;92914.66;;;33.60;34.20
6038;BME280;3047;42.600;23.470;2022-08-19T09:30:39;92950.47;;;33.95;35.37
6038;BME280;3047;42.600;23.470;2022-08-19T09:33:07;92950.91;;;34.20;33.66
6038;BME280;3047;42.600;23.470;2022-08-19T09:35:34;92945.97;;;34.32;33.85
6038;BME280;3047;42.600;23.470;2022-08-19T09:38:01;92927.88;;;34.44;34.05
6038;BME280;3047;42.600;23.470;2022-08-19T09:40:30;92938.94;;;34.67;32.94
6038;BME280;3047;42.600;23.470;2022-08-19T09:42:57;92934.22;;;34.84;33.02
6038;BME280;3047;42.600;23.470;2022-08-19T09:45:28;92933.91;;;35.01;31.46
6038;BME280;3047;42.600;23.470;2022-08-19T09:47:55;92928.34;;;35.17;32.48
6038;BME280;3047;42.600;23.470;2022-08-19T09:50:23;92926.84;;;35.08;33.07
6038;BME280;3047;42.600;23.470;2022-08-19T09:52:50;92918.09;;;34.94;31.55
6038;BME280;3047;42.600;23.470;2022-08-19T09:55:18;92929.19;;;34.96;32.32
6038;BME280;3047;42.600;23.470;2022-08-19T09:57:46;92931.34;;;34.79;32.44
6038;BME280;3047;42.600;23.470;2022-08-19T10:00:14;92932.16;;;34.80;30.39
6038;BME280;3047;42.600;23.470;2022-08-19T10:02:40;92922.91;;;34.90;30.28
6038;BME280;3047;42.600;23.470;2022-08-19T10:05:07;92919.97;;;35.00;30.08
6038;BME280;3047;42.600;23.470;2022-08-19T10:07:52;92914.53;;;35.08;31.85
6038;BME280;3047;42.600;23.470;2022-08-19T10:10:19;92909.16;;;35.23;30.53
6038;BME280;3047;42.600;23.470;2022-08-19T10:12:47;92917.47;;;35.33;30.67
6038;BME280;3047;42.600;23.470;2022-08-19T10:15:14;92889.19;;;35.35;30.93
6038;BME280;3047;42.600;23.470;2022-08-19T10:17:41;92908.19;;;35.37;30.65
6038;BME280;3047;42.600;23.470;2022-08-19T10:20:09;92910.19;;;35.29;29.76
6038;BME280;3047;42.600;23.470;2022-08-19T10:22:36;92904.53;;;35.25;30.21
6038;BME280;3047;42.600;23.470;2022-08-19T10:25:05;92906.91;;;35.20;30.71
6038;BME280;3047;42.600;23.470;2022-08-19T10:27:31;92905.94;;;35.21;30.80
6038;BME280;3047;42.600;23.470;2022-08-19T10:30:00;92904.09;;;35.28;29.97
6038;BME280;3047;42.600;23.470;2022-08-19T10:32:27;92902.91;;;35.31;29.93
6038;BME280;3047;42.600;23.470;2022-08-19T10:34:55;92886.75;;;35.40;30.28
6038;BME280;3047;42.600;23.470;2022-08-19T10:37:22;92855.63;;;35.17;29.69
6038;BME280;3047;42.600;23.470;2022-08-19T10:39:49;92850.56;;;35.23;29.32
6038;BME280;3047;42.600;23.470;2022-08-19T10:42:16;92850.81;;;35.41;29.70
6038;BME280;3047;42.600;23.470;2022-08-19T10:44:44;92894.47;;;35.42;30.01
6038;BME280;3047;42.600;23.470;2022-08-19T10:47:13;92881.88;;;35.24;29.24
6038;BME280;3047;42.600;23.470;2022-08-19T10:49:40;92900.06;;;35.32;30.79
6038;BME280;3047;42.600;23.470;2022-08-19T10:52:20;92886.16;;;35.38;30.49
6038;BME280;3047;42.600;23.470;2022-08-19T10:55:04;92865.69;;;35.21;30.37
6038;BME280;3047;42.600;23.470;2022-08-19T10:57:48;92890.22;;;35.41;29.99
6038;BME280;3047;42.600;23.470;2022-08-19T11:00:15;92889.81;;;35.44;29.93
6038;BME280;3047;42.600;23.470;2022-08-19T11:02:44;92883.56;;;35.45;30.09
6038;BME280;3047;42.600;23.470;2022-08-19T11:05:11;92884.13;;;35.40;29.13
6038;BME280;3047;42.600;23.470;2022-08-19T11:07:39;92887.16;;;35.31;30.49
6038;BME280;3047;42.600;23.470;2022-08-19T11:10:09;92874.91;;;35.51;29.22
6038;BME280;3047;42.600;23.470;2022-08-19T11:12:36;92851.78;;;35.27;29.59
6038;BME280;3047;42.600;23.470;2022-08-19T11:15:05;92853.78;;;35.18;30.33
6038;BME280;3047;42.600;23.470;2022-08-19T11:17:33;92883.50;;;35.32;29.56
6038;BME280;3047;42.600;23.470;2022-08-19T11:20:01;92885.53;;;35.30;31.35
6038;BME280;3047;42.600;23.470;2022-08-19T11:22:30;92885.50;;;35.23;29.64
6038;BME280;3047;42.600;23.470;2022-08-19T11:24:56;92878.69;;;35.29;30.62
6038;BME280;3047;42.600;23.470;2022-08-19T11:27:23;92868.97;;;35.36;30.61
6038;BME280;3047;42.600;23.470;2022-08-19T11:29:50;92877.47;;;35.45;30.95
6038;BME280;3047;42.600;23.470;2022-08-19T11:32:18;92875.03;;;35.36;30.19
6038;BME280;3047;42.600;23.470;2022-08-19T11:34:45;92875.13;;;35.50;29.88
6038;BME280;3047;42.600;23.470;2022-08-19T11:37:13;92877.31;;;35.53;31.11
6038;BME280;3047;42.600;23.470;2022-08-19T11:39:41;92845.09;;;35.24;30.02
6038;BME280;3047;42.600;23.470;2022-08-19T11:42:08;92872.41;;;35.30;30.31
6038;BME280;3047;42.600;23.470;2022-08-19T11:44:48;92871.41;;;35.37;29.48
6038;BME280;3047;42.600;23.470;2022-08-19T11:47:15;92867.81;;;35.45;29.57
6038;BME280;3047;42.600;23.470;2022-08-19T11:49:42;92861.31;;;35.34;30.22
6038;BME280;3047;42.600;23.470;2022-08-19T11:52:09;92856.25;;;35.39;30.33
6038;BME280;3047;42.600;23.470;2022-08-19T11:54:37;92858.69;;;35.34;31.01
6038;BME280;3047;42.600;23.470;2022-08-19T11:57:04;92856.66;;;35.36;29.74
6038;BME280;3047;42.600;23.470;2022-08-19T11:59:31;92854.03;;;35.30;30.71
6038;BME280;3047;42.600;23.470;2022-08-19T12:01:58;92848.38;;;35.33;29.50
6038;BME280;3047;42.600;23.470;2022-08-19T12:04:24;92850.81;;;35.34;31.46
6038;BME280;3047;42.600;23.470;2022-08-19T12:06:51;92845.53;;;35.21;31.15
6038;BME280;3047;42.600;23.470;2022-08-19T12:09:18;92837.66;;;35.28;32.27
6038;BME280;3047;42.600;23.470;2022-08-19T12:11:46;92839.28;;;35.35;30.29
6038;BME280;3047;42.600;23.470;2022-08-19T12:14:13;92840.66;;;35.25;31.32
6038;BME280;3047;42.600;23.470;2022-08-19T12:16:40;92832.16;;;35.09;30.69
6038;BME280;3047;42.600;23.470;2022-08-19T12:19:07;92834.16;;;35.07;30.52
6038;BME280;3047;42.600;23.470;2022-08-19T12:21:35;92831.84;;;34.84;30.57
6038;BME280;3047;42.600;23.470;2022-08-19T12:24:03;92829.78;;;34.80;31.57
6038;BME280;3047;42.600;23.470;2022-08-19T12:26:30;92790.56;;;34.58;30.73
6038;BME280;3047;42.600;23.470;2022-08-19T12:28:59;92822.25;;;34.63;31.92
6038;BME280;3047;42.600;23.470;2022-08-19T12:31:26;92820.84;;;34.61;33.69
6038;BME280;3047;42.600;23.470;2022-08-19T12:33:54;92814.59;;;34.62;32.35
6038;BME280;3047;42.600;23.470;2022-08-19T12:36:21;92820.47;;;34.64;31.54
6038;BME280;3047;42.600;23.470;2022-08-19T12:38:48;92811.25;;;34.47;33.30
6038;BME280;3047;42.600;23.470;2022-08-19T12:41:16;92806.81;;;34.40;34.44
6038;BME280;3047;42.600;23.470;2022-08-19T12:43:44;92811.94;;;34.49;32.39
6038;BME280;3047;42.600;23.470;2022-08-19T12:46:12;92807.41;;;34.36;33.37
6038;BME280;3047;42.600;23.470;2022-08-19T12:48:39;92766.91;;;34.10;31.52
6038;BME280;3047;42.600;23.470;2022-08-19T12:51:09;92803.44;;;34.18;31.39
6038;BME280;3047;42.600;23.470;2022-08-19T12:53:36;92795.00;;;33.95;31.68
6038;BME280;3047;42.600;23.470;2022-08-19T12:56:03;92807.94;;;33.96;31.27
6038;BME280;3047;42.600;23.470;2022-08-19T12:58:31;92810.06;;;33.86;31.60
6038;BME280;3047;42.600;23.470;2022-08-19T13:01:00;92813.91;;;33.84;32.62
6038;BME280;3047;42.600;23.470;2022-08-19T13:03:33;92811.44;;;33.82;33.55
6038;BME280;3047;42.600;23.470;2022-08-19T13:06:00;92805.47;;;33.88;33.16
6038;BME280;3047;42.600;23.470;2022-08-19T13:08:27;92803.22;;;33.85;33.01
6038;BME280;3047;42.600;23.470;2022-08-19T13:10:53;92797.91;;;33.79;35.77
6038;BME280;3047;42.600;23.470;2022-08-19T13:13:20;92743.56;;;33.38;34.70
6038;BME280;3047;42.600;23.470;2022-08-19T13:15:47;92801.78;;;33.83;33.54
6038;BME280;3047;42.600;23.470;2022-08-19T13:18:14;92803.59;;;33.82;34.41